Time;durP1;ratioP1;P1;durP2;ratioP2;P2;SDS_P1;SDS_P2;PMS_P1;PMS_P2;Temp;Humidity;BMP_temperature;BMP_pressure;BME280_temperature;BME280_humidity;BME280_pressure;Samples;Min_cycle;Max_cycle;Signal;HPM_P1;HPM_P2
2023/02/14 00:00:03;;;;;;;;;;;;;;;;;;5115349;28;19979;-66
2023/02/14 00:02:29;;;;;;;;;;;;;;;;;;5096818;28;20079;-66
2023/02/14 00:04:55;;;;;;;;;;;;;;;;;;5115606;28;19961;-66
2023/02/14 00:07:21;;;;;;;;;;;;;;;;;;5115232;28;20001;-66
2023/02/14 00:09:47;;;;;;;;;;;;;;;;;;5114952;28;20428;-66
2023/02/14 00:12:12;;;;;;;;;;;;;;;;;;5115492;28;19998;-65
2023/02/14 00:17:23;;;;;;;;;;;;;;;;;;5115188;28;20383;-66
2023/02/14 00:19:49;;;;;;;;;;;;;;;;;;5114698;28;20064;-66
2023/02/14 00:22:15;;;;;;;;;;;;;;;;;;5115027;28;19995;-66
2023/02/14 00:24:41;;;;;;;;;;;;;;;;;;5114658;28;19953;-66
2023/02/14 00:27:07;;;;;;;;;;;;;;;;;;5114840;28;19961;-66
2023/02/14 00:29:32;;;;;;;;;;;;;;;;;;5114887;28;19953;-66
2023/02/14 00:31:58;;;;;;;;;;;;;;;;;;5114581;28;20041;-66
2023/02/14 00:34:24;;;;;;;;;;;;;;;;;;5114793;28;19959;-65
2023/02/14 00:36:50;;;;;;;;;;;;;;;;;;5115082;28;20322;-66
2023/02/14 00:39:16;;;;;;;;;;;;;;;;;;5114369;28;19976;-66
2023/02/14 00:41:42;;;;;;;;;;;;;;;;;;5114688;28;19950;-66
2023/02/14 00:44:08;;;;;;;;;;;;;;;;;;5115174;28;20092;-66
2023/02/14 00:46:34;;;;;;;;;;;;;;;;;;5114615;28;19951;-66
2023/02/14 00:49:00;;;;;;;;;;;;;;;;;;5114302;28;20408;-65
2023/02/14 00:51:26;;;;;;;;;;;;;;;;;;5114276;28;19951;-65
2023/02/14 00:53:51;;;;;;;;;;;;;;;;;;5114478;28;19962;-66
2023/02/14 00:56:17;;;;;;;;;;;;;;;;;;5114128;28;20489;-65
2023/02/14 00:58:43;;;;;;;;;;;;;;;;;;5114337;28;19956;-65
2023/02/14 01:01:09;;;;;;;;;;;;;;;;;;5114119;28;20374;-66
2023/02/14 01:03:35;;;;;;;;;;;;;;;;;;5114117;28;19958;-66
2023/02/14 01:06:01;;;;;;;;;;;;;;;;;;5114325;28;19952;-66
2023/02/14 01:08:27;;;;;;;;;;;;;;;;;;5114117;28;19955;-66
2023/02/14 01:10:53;;;;;;;;;;;;;;;;;;5113729;28;20010;-65
2023/02/14 01:13:18;;;;;;;;;;;;;;;;;;5113975;28;19969;-66
2023/02/14 01:15:44;;;;;;;;;;;;;;;;;;5113991;28;19950;-66
2023/02/14 01:18:10;;;;;;;;;;;;;;;;;;5114569;28;19956;-65
2023/02/14 01:20:36;;;;;;;;;;;;;;;;;;5113901;28;19978;-66
2023/02/14 01:23:02;;;;;;;;;;;;;;;;;;5114466;28;19997;-65
2023/02/14 01:25:28;;;;;;;;;;;;;;;;;;5114158;28;20048;-66
2023/02/14 01:27:54;;;;;;;;;;;;;;;;;;5114426;28;20010;-66
2023/02/14 01:30:20;;;;;;;;;;;;;;;;;;5114084;28;19950;-66
2023/02/14 01:32:46;;;;;;;;;;;;;;;;;;5113812;28;19954;-66
2023/02/14 01:35:11;;;;;;;;;;;;;;;;;;5113813;28;19954;-66
2023/02/14 01:37:37;;;;;;;;;;;;;;;;;;5113753;28;19954;-66
2023/02/14 01:40:03;;;;;;;;;;;;;;;;;;5113955;28;19972;-66
2023/02/14 01:42:29;;;;;;;;;;;;;;;;;;5113749;28;20315;-66
2023/02/14 01:44:55;;;;;;;;;;;;;;;;;;5113753;28;19952;-66
2023/02/14 01:47:21;;;;;;;;;;;;;;;;;;5113651;28;19957;-66
2023/02/14 01:49:47;;;;;;;;;;;;;;;;;;5113936;28;20106;-66
2023/02/14 01:52:13;;;;;;;;;;;;;;;;;;5113672;28;20328;-66
2023/02/14 01:54:39;;;;;;;;;;;;;;;;;;5113935;28;20418;-66
2023/02/14 01:57:04;;;;;;;;;;;;;;;;;;5113903;28;19964;-66
2023/02/14 01:59:30;;;;;;;;;;;;;;;;;;5113772;28;20428;-66
2023/02/14 02:01:56;;;;;;;;;;;;;;;;;;5114093;28;19955;-66
2023/02/14 02:04:22;;;;;;;;;;;;;;;;;;5113500;28;20392;-66
2023/02/14 02:06:48;;;;;;;;;;;;;;;;;;5113470;28;19952;-66
2023/02/14 02:09:14;;;;;;;;;;;;;;;;;;5113518;28;20406;-66
2023/02/14 02:11:40;;;;;;;;;;;;;;;;;;5113738;28;19945;-66
2023/02/14 02:14:06;;;;;;;;;;;;;;;;;;5113363;28;19992;-66
2023/02/14 02:16:31;;;;;;;;;;;;;;;;;;5113686;28;20092;-66
2023/02/14 02:18:57;;;;;;;;;;;;;;;;;;5113461;28;20061;-66
2023/02/14 02:21:23;;;;;;;;;;;;;;;;;;5117038;28;20470;-65
2023/02/14 02:23:49;;;;;;;;;;;;;;;;;;5117350;28;19955;-66
2023/02/14 02:26:15;;;;;;;;;;;;;;;;;;5116967;28;19973;-66
2023/02/14 02:28:41;;;;;;;;;;;;;;;;;;5117210;28;19961;-66
2023/02/14 02:31:07;;;;;;;;;;;;;;;;;;5116936;28;19996;-66
2023/02/14 02:33:33;;;;;;;;;;;;;;;;;;5116855;28;20426;-65
2023/02/14 02:35:58;;;;;;;;;;;;;;;;;;5117069;28;19952;-66
2023/02/14 02:38:24;;;;;;;;;;;;;;;;;;5116772;28;20430;-66
2023/02/14 02:40:50;;;;;;;;;;;;;;;;;;5116942;28;19977;-66
2023/02/14 02:43:16;;;;;;;;;;;;;;;;;;5116653;28;20338;-66
2023/02/14 02:46:46;;;;;;;;;;;;;;;;;;5116646;28;20006;-66
2023/02/14 02:48:28;;;;;;;;;;;;;;;;;;5116332;28;19953;-65
2023/02/14 02:53:38;;;;;;;;;;;;;;;;;;5116821;28;20431;-66
2023/02/14 02:58:48;;;;;;;;;;;;;;;;;;5116078;28;19960;-66
2023/02/14 03:01:14;;;;;;;;;;;;;;;;;;5098095;28;19956;-65
2023/02/14 03:06:25;;;;;;;;;;;;;;;;;;5116058;28;19957;-66
2023/02/14 03:08:50;;;;;;;;;;;;;;;;;;5116401;28;19951;-66
2023/02/14 03:11:18;;;;;;;;;;;;;;;;;;5115366;28;20145;-66
2023/02/14 03:13:44;;;;;;;;;;;;;;;;;;5097781;28;19974;-66
2023/02/14 03:16:10;;;;;;;;;;;;;;;;;;5116032;28;19959;-66
2023/02/14 03:18:36;;;;;;;;;;;;;;;;;;5116063;28;20005;-66
2023/02/14 03:21:02;;;;;;;;;;;;;;;;;;5116153;28;20451;-66
2023/02/14 03:23:28;;;;;;;;;;;;;;;;;;5115874;28;19955;-66
2023/02/14 03:25:54;;;;;;;;;;;;;;;;;;5115795;28;19954;-66
2023/02/14 03:28:20;;;;;;;;;;;;;;;;;;5115823;28;19957;-66
2023/02/14 03:30:45;;;;;;;;;;;;;;;;;;5115707;28;19955;-66
2023/02/14 03:33:11;;;;;;;;;;;;;;;;;;5115980;28;20056;-65
2023/02/14 03:35:37;;;;;;;;;;;;;;;;;;5115626;28;20051;-66
2023/02/14 03:38:03;;;;;;;;;;;;;;;;;;5115626;28;19959;-66
2023/02/14 03:40:29;;;;;;;;;;;;;;;;;;5115711;28;19972;-66
2023/02/14 03:42:55;;;;;;;;;;;;;;;;;;5115535;28;19952;-66
2023/02/14 03:45:21;;;;;;;;;;;;;;;;;;5115468;28;19975;-66
2023/02/14 03:47:47;;;;;;;;;;;;;;;;;;5115405;28;19960;-66
2023/02/14 03:50:13;;;;;;;;;;;;;;;;;;5115392;28;19952;-66
2023/02/14 03:52:38;;;;;;;;;;;;;;;;;;5115260;28;19956;-66
2023/02/14 03:55:04;;;;;;;;;;;;;;;;;;5115861;28;19951;-66
2023/02/14 03:57:30;;;;;;;;;;;;;;;;;;5115155;28;19976;-66
2023/02/14 03:59:56;;;;;;;;;;;;;;;;;;5115079;28;20019;-65
2023/02/14 04:02:22;;;;;;;;;;;;;;;;;;5115373;28;19952;-65
2023/02/14 04:04:48;;;;;;;;;;;;;;;;;;5115336;28;19962;-65
2023/02/14 04:07:14;;;;;;;;;;;;;;;;;;5115599;28;19959;-66
2023/02/14 04:09:40;;;;;;;;;;;;;;;;;;5114667;28;19988;-66
2023/02/14 04:12:05;;;;;;;;;;;;;;;;;;5114940;28;20000;-65
2023/02/14 04:14:32;;;;;;;;;;;;;;;;;;5115397;28;20488;-66
2023/02/14 04:19:42;;;;;;;;;;;;;;;;;;5114811;28;20056;-66
2023/02/14 04:22:08;;;;;;;;;;;;;;;;;;5115275;28;19954;-65
2023/02/14 04:24:34;;;;;;;;;;;;;;;;;;5114921;28;20055;-65
2023/02/14 04:27:08;;;;;;;;;;;;;;;;;;5114927;28;19962;-65
2023/02/14 04:29:34;;;;;;;;;;;;;;;;;;5115187;28;19957;-66
2023/02/14 04:32:00;;;;;;;;;;;;;;;;;;5114589;28;19950;-66
2023/02/14 04:34:26;;;;;;;;;;;;;;;;;;5115361;28;19956;-66
2023/02/14 04:36:52;;;;;;;;;;;;;;;;;;5114736;28;19957;-66
2023/02/14 04:39:18;;;;;;;;;;;;;;;;;;5114959;28;20531;-66
2023/02/14 04:41:44;;;;;;;;;;;;;;;;;;5095687;28;19958;-66
2023/02/14 04:44:10;;;;;;;;;;;;;;;;;;5114259;28;19953;-65
2023/02/14 04:46:35;;;;;;;;;;;;;;;;;;5114388;28;19953;-67
2023/02/14 04:49:01;;;;;;;;;;;;;;;;;;5114289;28;19959;-66
2023/02/14 04:51:27;;;;;;;;;;;;;;;;;;5114250;28;20000;-65
2023/02/14 04:53:53;;;;;;;;;;;;;;;;;;5114518;28;19993;-66
2023/02/14 04:56:19;;;;;;;;;;;;;;;;;;5114728;28;19952;-67
2023/02/14 04:58:45;;;;;;;;;;;;;;;;;;5114111;28;19980;-66
2023/02/14 05:01:11;;;;;;;;;;;;;;;;;;5114147;28;20401;-65
2023/02/14 05:03:37;;;;;;;;;;;;;;;;;;5114182;28;19953;-66
2023/02/14 05:06:02;;;;;;;;;;;;;;;;;;5114686;28;20368;-66
2023/02/14 05:08:28;;;;;;;;;;;;;;;;;;5114352;28;19953;-66
2023/02/14 05:10:54;;;;;;;;;;;;;;;;;;5113677;28;19988;-65
2023/02/14 05:13:20;;;;;;;;;;;;;;;;;;5113935;28;19976;-66
2023/02/14 05:15:46;;;;;;;;;;;;;;;;;;5114254;28;19955;-66
2023/02/14 05:18:12;;;;;;;;;;;;;;;;;;5114263;28;20404;-66
2023/02/14 05:20:38;;;;;;;;;;;;;;;;;;5113909;28;19973;-65
2023/02/14 05:23:04;;;;;;;;;;;;;;;;;;5113935;28;19959;-65
2023/02/14 05:25:30;;;;;;;;;;;;;;;;;;5114174;28;19952;-66
2023/02/14 05:27:56;;;;;;;;;;;;;;;;;;5114126;28;20012;-65
2023/02/14 05:30:25;;;;;;;;;;;;;;;;;;5113872;28;19952;-65
2023/02/14 05:32:51;;;;;;;;;;;;;;;;;;5095607;28;19964;-66
2023/02/14 05:35:17;;;;;;;;;;;;;;;;;;5113813;28;19957;-66
2023/02/14 05:37:42;;;;;;;;;;;;;;;;;;5113776;28;20001;-65
2023/02/14 05:40:08;;;;;;;;;;;;;;;;;;5113927;28;19976;-66
2023/02/14 05:42:34;;;;;;;;;;;;;;;;;;5114301;28;20000;-66
2023/02/14 05:45:00;;;;;;;;;;;;;;;;;;5113974;28;19952;-65
2023/02/14 05:47:26;;;;;;;;;;;;;;;;;;5113687;28;20004;-65
2023/02/14 05:49:52;;;;;;;;;;;;;;;;;;5113638;28;20427;-65
2023/02/14 05:52:18;;;;;;;;;;;;;;;;;;5113898;28;19952;-65
2023/02/14 05:54:44;;;;;;;;;;;;;;;;;;5115113;28;20408;-66
2023/02/14 05:57:10;;;;;;;;;;;;;;;;;;5117842;28;20042;-65
2023/02/14 05:59:35;;;;;;;;;;;;;;;;;;5117437;28;20346;-66
2023/02/14 06:02:01;;;;;;;;;;;;;;;;;;5117516;28;19952;-65
2023/02/14 06:04:27;;;;;;;;;;;;;;;;;;5117718;28;20358;-65
2023/02/14 06:06:53;;;;;;;;;;;;;;;;;;5117387;28;19968;-66
2023/02/14 06:09:19;;;;;;;;;;;;;;;;;;5117386;28;20036;-66
2023/02/14 06:11:45;;;;;;;;;;;;;;;;;;5117876;28;19952;-65
2023/02/14 06:14:11;;;;;;;;;;;;;;;;;;5117155;28;20464;-65
2023/02/14 06:16:37;;;;;;;;;;;;;;;;;;5117489;28;19964;-65
2023/02/14 06:19:03;;;;;;;;;;;;;;;;;;5117374;28;20479;-66
2023/02/14 06:21:28;;;;;;;;;;;;;;;;;;5117121;28;19953;-66
2023/02/14 06:23:54;;;;;;;;;;;;;;;;;;5117043;28;20299;-65
2023/02/14 06:26:20;;;;;;;;;;;;;;;;;;5118114;28;19965;-65
2023/02/14 06:28:46;;;;;;;;;;;;;;;;;;5116950;28;19976;-65
2023/02/14 06:31:12;;;;;;;;;;;;;;;;;;5117758;28;20459;-66
2023/02/14 06:33:38;;;;;;;;;;;;;;;;;;5117172;28;20000;-65
2023/02/14 06:36:04;;;;;;;;;;;;;;;;;;5116831;28;20407;-65
2023/02/14 06:38:31;;;;;;;;;;;;;;;;;;5116801;28;19960;-65
2023/02/14 06:40:57;;;;;;;;;;;;;;;;;;5098680;28;20439;-65
2023/02/14 06:43:22;;;;;;;;;;;;;;;;;;5116714;28;19977;-65
2023/02/14 06:45:48;;;;;;;;;;;;;;;;;;5098381;28;19956;-65
2023/02/14 06:48:14;;;;;;;;;;;;;;;;;;5117166;28;19952;-66
2023/02/14 06:50:40;;;;;;;;;;;;;;;;;;5116899;28;20003;-66
2023/02/14 06:53:06;;;;;;;;;;;;;;;;;;5116534;28;19994;-66
2023/02/14 06:55:32;;;;;;;;;;;;;;;;;;5116493;28;19956;-66
2023/02/14 06:57:58;;;;;;;;;;;;;;;;;;5116728;28;19952;-65
2023/02/14 07:00:24;;;;;;;;;;;;;;;;;;5117144;28;20454;-65
2023/02/14 07:02:50;;;;;;;;;;;;;;;;;;5116351;28;19960;-66
2023/02/14 07:05:17;;;;;;;;;;;;;;;;;;5116104;28;20375;-66
2023/02/14 07:07:43;;;;;;;;;;;;;;;;;;5116165;28;19964;-65
2023/02/14 07:10:09;;;;;;;;;;;;;;;;;;5116168;28;19989;-66
2023/02/14 07:12:38;;;;;;;;;;;;;;;;;;5116155;28;19954;-66
2023/02/14 07:15:04;;;;;;;;;;;;;;;;;;5115967;28;20439;-66
2023/02/14 07:17:30;;;;;;;;;;;;;;;;;;5116059;28;19954;-65
2023/02/14 07:19:55;;;;;;;;;;;;;;;;;;5115926;28;19979;-66
2023/02/14 07:22:21;;;;;;;;;;;;;;;;;;5115978;28;19999;-66
2023/02/14 07:24:47;;;;;;;;;;;;;;;;;;5116208;28;19951;-66
2023/02/14 07:27:13;;;;;;;;;;;;;;;;;;5116174;28;19950;-66
2023/02/14 07:29:40;;;;;;;;;;;;;;;;;;5116359;28;19957;-66
2023/02/14 07:32:06;;;;;;;;;;;;;;;;;;5097225;28;19956;-66
2023/02/14 07:34:32;;;;;;;;;;;;;;;;;;5115737;28;19953;-65
2023/02/14 07:36:58;;;;;;;;;;;;;;;;;;5115938;28;20358;-66
2023/02/14 07:39:24;;;;;;;;;;;;;;;;;;5115570;28;20444;-66
2023/02/14 07:41:49;;;;;;;;;;;;;;;;;;5097629;28;19956;-65
2023/02/14 07:44:15;;;;;;;;;;;;;;;;;;5115488;28;19953;-65
2023/02/14 07:46:41;;;;;;;;;;;;;;;;;;5115484;28;19986;-66
2023/02/14 07:49:07;;;;;;;;;;;;;;;;;;5115699;28;19963;-66
2023/02/14 07:51:33;;;;;;;;;;;;;;;;;;5115387;28;19952;-66
2023/02/14 07:53:59;;;;;;;;;;;;;;;;;;5115246;28;20324;-66
2023/02/14 07:56:25;;;;;;;;;;;;;;;;;;5115248;28;19980;-66
2023/02/14 07:58:51;;;;;;;;;;;;;;;;;;5115444;28;20345;-66
2023/02/14 08:01:16;;;;;;;;;;;;;;;;;;5115148;28;19963;-66
2023/02/14 08:03:44;;;;;;;;;;;;;;;;;;5115136;28;19952;-66
2023/02/14 08:06:10;;;;;;;;;;;;;;;;;;5115047;28;19956;-66
2023/02/14 08:08:36;;;;;;;;;;;;;;;;;;5115301;28;19961;-65
2023/02/14 08:11:02;;;;;;;;;;;;;;;;;;5117218;27;20083;-68
2023/02/14 08:13:28;;;;;;;;;;;;;;;;;;5114550;28;20458;-69
2023/02/14 08:16:03;;;;;;;;;;;;;;;;;;5127977;27;20313;-69
2023/02/14 08:18:29;;;;;;;;;;;;;;;;;;5124924;27;19960;-68
2023/02/14 08:20:55;;;;;;;;;;;;;;;;;;5117316;27;20440;-67
2023/02/14 08:23:21;;;;;;;;;;;;;;;;;;5135308;27;19968;-69
2023/02/14 08:25:47;;;;;;;;;;;;;;;;;;5134485;27;19965;-69
2023/02/14 08:28:13;;;;;;;;;;;;;;;;;;5134093;27;20038;-69
2023/02/14 08:30:39;;;;;;;;;;;;;;;;;;5114682;28;19959;-68
2023/02/14 08:33:05;;;;;;;;;;;;;;;;;;5122088;27;20324;-67
2023/02/14 08:35:31;;;;;;;;;;;;;;;;;;5134996;27;19964;-66
2023/02/14 08:37:57;;;;;;;;;;;;;;;;;;5135090;27;19958;-67
2023/02/14 08:40:23;;;;;;;;;;;;;;;;;;5135259;27;19979;-69
2023/02/14 08:42:49;;;;;;;;;;;;;;;;;;5131984;27;20056;-68
2023/02/14 08:45:15;;;;;;;;;;;;;;;;;;5134965;27;20034;-69
2023/02/14 08:47:41;;;;;;;;;;;;;;;;;;5107670;28;20002;-68
2023/02/14 08:50:07;;;;;;;;;;;;;;;;;;5119669;27;19971;-68
2023/02/14 08:52:33;;;;;;;;;;;;;;;;;;5116508;27;20337;-68
2023/02/14 08:54:59;;;;;;;;;;;;;;;;;;5114248;28;19950;-68
2023/02/14 08:57:26;;;;;;;;;;;;;;;;;;5115358;28;20117;-68
2023/02/14 08:59:52;;;;;;;;;;;;;;;;;;5117403;27;20016;-68
2023/02/14 09:02:18;;;;;;;;;;;;;;;;;;5126835;28;20008;-69
2023/02/14 09:04:44;;;;;;;;;;;;;;;;;;5134691;27;20325;-68
2023/02/14 09:07:10;;;;;;;;;;;;;;;;;;5134603;27;19998;-66
2023/02/14 09:09:36;;;;;;;;;;;;;;;;;;5125199;27;20398;-67
2023/02/14 09:12:02;;;;;;;;;;;;;;;;;;5119027;27;19956;-68
2023/02/14 09:14:27;;;;;;;;;;;;;;;;;;5113886;28;19990;-66
2023/02/14 09:16:53;;;;;;;;;;;;;;;;;;5113751;28;20038;-66
2023/02/14 09:19:19;;;;;;;;;;;;;;;;;;5125565;28;19966;-67
2023/02/14 09:21:45;;;;;;;;;;;;;;;;;;5114850;28;20420;-67
2023/02/14 09:24:11;;;;;;;;;;;;;;;;;;5114741;28;20038;-67
2023/02/14 09:26:39;;;;;;;;;;;;;;;;;;5114204;28;20004;-67
2023/02/14 09:29:05;;;;;;;;;;;;;;;;;;5116072;27;19955;-70
2023/02/14 09:31:31;;;;;;;;;;;;;;;;;;5133327;27;20329;-71
2023/02/14 09:33:57;;;;;;;;;;;;;;;;;;5120880;27;19963;-66
2023/02/14 09:36:23;;;;;;;;;;;;;;;;;;5130751;27;20041;-68
2023/02/14 09:38:49;;;;;;;;;;;;;;;;;;5130783;27;20039;-67
2023/02/14 09:41:14;;;;;;;;;;;;;;;;;;5118447;27;19980;-66
2023/02/14 09:43:40;;;;;;;;;;;;;;;;;;5117930;28;19955;-65
2023/02/14 09:46:06;;;;;;;;;;;;;;;;;;5118043;28;19960;-67
2023/02/14 09:48:32;;;;;;;;;;;;;;;;;;5124830;27;19959;-68
2023/02/14 09:50:58;;;;;;;;;;;;;;;;;;5117843;27;19960;-67
2023/02/14 09:53:24;;;;;;;;;;;;;;;;;;5131840;27;19958;-69
2023/02/14 09:55:50;;;;;;;;;;;;;;;;;;5117645;28;19951;-68
2023/02/14 09:58:17;;;;;;;;;;;;;;;;;;5121616;27;20407;-70
2023/02/14 10:00:43;;;;;;;;;;;;;;;;;;5138004;27;19970;-69
2023/02/14 10:03:09;;;;;;;;;;;;;;;;;;5136001;27;20087;-68
2023/02/14 10:05:35;;;;;;;;;;;;;;;;;;5135781;27;19959;-70
2023/02/14 10:08:01;;;;;;;;;;;;;;;;;;5124112;27;19958;-67
2023/02/14 10:10:29;;;;;;;;;;;;;;;;;;5117194;28;20008;-71
2023/02/14 10:12:55;;;;;;;;;;;;;;;;;;5130267;27;19959;-67
2023/02/14 10:15:21;;;;;;;;;;;;;;;;;;5122075;27;19957;-67
2023/02/14 10:17:47;;;;;;;;;;;;;;;;;;5123693;27;19964;-68
2023/02/14 10:20:13;;;;;;;;;;;;;;;;;;5132901;27;19976;-68
2023/02/14 10:22:39;;;;;;;;;;;;;;;;;;5127220;27;19957;-68
2023/02/14 10:25:04;;;;;;;;;;;;;;;;;;5117063;28;19950;-68
2023/02/14 10:27:30;;;;;;;;;;;;;;;;;;5117656;28;19958;-68
2023/02/14 10:29:56;;;;;;;;;;;;;;;;;;5116964;28;20134;-68
2023/02/14 10:32:22;;;;;;;;;;;;;;;;;;5116930;28;20480;-68
2023/02/14 10:34:48;;;;;;;;;;;;;;;;;;5116946;28;19951;-69
2023/02/14 10:37:14;;;;;;;;;;;;;;;;;;5116731;27;20312;-68
2023/02/14 10:39:40;;;;;;;;;;;;;;;;;;5116481;27;20448;-66
2023/02/14 10:42:06;;;;;;;;;;;;;;;;;;5126964;27;19961;-68
2023/02/14 10:44:32;;;;;;;;;;;;;;;;;;5137844;27;20360;-67
2023/02/14 10:46:58;;;;;;;;;;;;;;;;;;5133061;27;20384;-67
2023/02/14 10:49:24;;;;;;;;;;;;;;;;;;5137146;27;19962;-68
2023/02/14 10:51:49;;;;;;;;;;;;;;;;;;5137700;27;19950;-68
2023/02/14 10:54:16;;;;;;;;;;;;;;;;;;5133421;27;19964;-68
2023/02/14 10:56:42;;;;;;;;;;;;;;;;;;5120194;27;19952;-68
2023/02/14 10:59:08;;;;;;;;;;;;;;;;;;5125334;27;19947;-67
2023/02/14 11:01:34;;;;;;;;;;;;;;;;;;5118832;27;20004;-68
2023/02/14 11:04:02;;;;;;;;;;;;;;;;;;5120918;27;19958;-68
2023/02/14 11:06:28;;;;;;;;;;;;;;;;;;5116357;27;20049;-68
2023/02/14 11:08:54;;;;;;;;;;;;;;;;;;5115699;27;20398;-68
2023/02/14 11:11:20;;;;;;;;;;;;;;;;;;5123772;27;19987;-68
2023/02/14 11:13:46;;;;;;;;;;;;;;;;;;5134861;27;19966;-68
2023/02/14 11:16:12;;;;;;;;;;;;;;;;;;5136682;27;19954;-69
2023/02/14 11:18:39;;;;;;;;;;;;;;;;;;5136619;27;19990;-69
2023/02/14 11:21:05;;;;;;;;;;;;;;;;;;5136476;27;19976;-68
2023/02/14 11:23:31;;;;;;;;;;;;;;;;;;5136528;27;19998;-67
2023/02/14 11:25:59;;;;;;;;;;;;;;;;;;5127940;27;20340;-67
2023/02/14 11:28:25;;;;;;;;;;;;;;;;;;5121967;27;19953;-69
2023/02/14 11:30:51;;;;;;;;;;;;;;;;;;5136399;27;19995;-67
2023/02/14 11:33:16;;;;;;;;;;;;;;;;;;5124765;27;20428;-69
2023/02/14 11:35:42;;;;;;;;;;;;;;;;;;5118262;27;19954;-69
2023/02/14 11:38:08;;;;;;;;;;;;;;;;;;5115652;28;20312;-69
2023/02/14 11:40:34;;;;;;;;;;;;;;;;;;5115565;28;19970;-68
2023/02/14 11:43:00;;;;;;;;;;;;;;;;;;5115572;28;19947;-68
2023/02/14 11:45:26;;;;;;;;;;;;;;;;;;5115566;28;19959;-69
2023/02/14 11:47:52;;;;;;;;;;;;;;;;;;5115695;28;19959;-69
2023/02/14 11:50:18;;;;;;;;;;;;;;;;;;5115418;28;19947;-69
2023/02/14 11:52:43;;;;;;;;;;;;;;;;;;5114237;28;19944;-69
2023/02/14 11:55:09;;;;;;;;;;;;;;;;;;5115577;28;19999;-69
2023/02/14 11:57:35;;;;;;;;;;;;;;;;;;5115242;28;19947;-69
2023/02/14 12:00:03;;;;;;;;;;;;;;;;;;5115441;28;20060;-69
2023/02/14 12:02:29;;;;;;;;;;;;;;;;;;5115447;28;19963;-68
2023/02/14 12:04:55;;;;;;;;;;;;;;;;;;5115693;28;20299;-68
2023/02/14 12:07:21;;;;;;;;;;;;;;;;;;5115370;28;19950;-68
2023/02/14 12:09:47;;;;;;;;;;;;;;;;;;5107556;28;19998;-68
2023/02/14 12:12:13;;;;;;;;;;;;;;;;;;5094631;28;19952;-69
2023/02/14 12:14:39;;;;;;;;;;;;;;;;;;5094511;28;19977;-69
2023/02/14 12:17:04;;;;;;;;;;;;;;;;;;5094568;28;20386;-68
2023/02/14 12:19:31;;;;;;;;;;;;;;;;;;5094688;28;19971;-68
2023/02/14 12:21:57;;;;;;;;;;;;;;;;;;5094545;28;19977;-68
2023/02/14 12:24:23;;;;;;;;;;;;;;;;;;5094459;28;20405;-69
2023/02/14 12:26:49;;;;;;;;;;;;;;;;;;5094622;28;19952;-69
2023/02/14 12:29:16;;;;;;;;;;;;;;;;;;5094377;28;19985;-69
2023/02/14 12:31:42;;;;;;;;;;;;;;;;;;5094315;28;20421;-68
2023/02/14 12:34:08;;;;;;;;;;;;;;;;;;5094473;28;20065;-69
2023/02/14 12:36:34;;;;;;;;;;;;;;;;;;5094218;28;19951;-69
2023/02/14 12:39:00;;;;;;;;;;;;;;;;;;5076011;28;19963;-69
2023/02/14 12:41:26;;;;;;;;;;;;;;;;;;5094158;28;20321;-69
2023/02/14 12:43:52;;;;;;;;;;;;;;;;;;5094349;28;19969;-69
2023/02/14 12:46:18;;;;;;;;;;;;;;;;;;5094054;28;19951;-69
2023/02/14 12:48:44;;;;;;;;;;;;;;;;;;5094587;28;19955;-69
2023/02/14 12:51:10;;;;;;;;;;;;;;;;;;5094278;28;19949;-69
2023/02/14 12:53:36;;;;;;;;;;;;;;;;;;5094241;28;20446;-69
2023/02/14 12:56:02;;;;;;;;;;;;;;;;;;5093895;28;19998;-69
2023/02/14 12:58:28;;;;;;;;;;;;;;;;;;5094438;28;19951;-69
2023/02/14 13:00:54;;;;;;;;;;;;;;;;;;5093785;28;20015;-68
2023/02/14 13:03:20;;;;;;;;;;;;;;;;;;5093460;28;19958;-68
2023/02/14 13:05:46;;;;;;;;;;;;;;;;;;5094320;28;20475;-68
2023/02/14 13:08:11;;;;;;;;;;;;;;;;;;5093724;28;19950;-69
2023/02/14 13:10:37;;;;;;;;;;;;;;;;;;5093671;28;20405;-68
2023/02/14 13:13:03;;;;;;;;;;;;;;;;;;5093856;28;19952;-68
2023/02/14 13:15:29;;;;;;;;;;;;;;;;;;5093682;28;20379;-68
2023/02/14 13:17:55;;;;;;;;;;;;;;;;;;5093640;28;20032;-69
2023/02/14 13:20:23;;;;;;;;;;;;;;;;;;5093502;28;19979;-69
2023/02/14 13:22:49;;;;;;;;;;;;;;;;;;5094144;28;19983;-69
2023/02/14 13:25:15;;;;;;;;;;;;;;;;;;5093531;28;20009;-68
2023/02/14 13:27:41;;;;;;;;;;;;;;;;;;5093421;28;20016;-69
2023/02/14 13:30:07;;;;;;;;;;;;;;;;;;5093513;28;19951;-68
2023/02/14 13:32:33;;;;;;;;;;;;;;;;;;5093495;28;19950;-69
2023/02/14 13:34:59;;;;;;;;;;;;;;;;;;5094033;28;19951;-69
2023/02/14 13:37:25;;;;;;;;;;;;;;;;;;5093419;28;19951;-68
2023/02/14 13:39:51;;;;;;;;;;;;;;;;;;5093383;28;19972;-68
2023/02/14 13:42:17;;;;;;;;;;;;;;;;;;5093402;28;20446;-69
2023/02/14 13:44:43;;;;;;;;;;;;;;;;;;5093393;28;19947;-68
2023/02/14 13:47:09;;;;;;;;;;;;;;;;;;5093622;28;20001;-69
2023/02/14 13:49:36;;;;;;;;;;;;;;;;;;5093628;28;20398;-68
2023/02/14 13:52:05;;;;;;;;;;;;;;;;;;5074957;28;20045;-68
2023/02/14 13:54:31;;;;;;;;;;;;;;;;;;5093332;28;20005;-68
2023/02/14 13:56:56;;;;;;;;;;;;;;;;;;5093492;28;19954;-69
2023/02/14 13:59:22;;;;;;;;;;;;;;;;;;5093152;28;19950;-69
2023/02/14 14:01:49;;;;;;;;;;;;;;;;;;5093508;28;20066;-69
2023/02/14 14:04:15;;;;;;;;;;;;;;;;;;5093461;28;19951;-69
2023/02/14 14:06:41;;;;;;;;;;;;;;;;;;5093164;28;19951;-69
2023/02/14 14:09:07;;;;;;;;;;;;;;;;;;5093239;28;19957;-69
2023/02/14 14:11:33;;;;;;;;;;;;;;;;;;5093483;28;19943;-69
2023/02/14 14:14:00;;;;;;;;;;;;;;;;;;5093359;28;20454;-69
2023/02/14 14:16:26;;;;;;;;;;;;;;;;;;5096156;28;20046;-69
2023/02/14 14:18:52;;;;;;;;;;;;;;;;;;5096834;28;20431;-68
2023/02/14 14:21:18;;;;;;;;;;;;;;;;;;5096660;28;20041;-69
2023/02/14 14:23:43;;;;;;;;;;;;;;;;;;5097290;28;19944;-69
2023/02/14 14:26:09;;;;;;;;;;;;;;;;;;5096684;28;19952;-69
2023/02/14 14:28:35;;;;;;;;;;;;;;;;;;5096976;28;19956;-68
2023/02/14 14:31:01;;;;;;;;;;;;;;;;;;5096590;28;19989;-69
2023/02/14 14:33:27;;;;;;;;;;;;;;;;;;5096539;28;19953;-68
2023/02/14 14:35:53;;;;;;;;;;;;;;;;;;5097609;28;20005;-68
2023/02/14 14:38:19;;;;;;;;;;;;;;;;;;5096457;28;20415;-69
2023/02/14 14:40:45;;;;;;;;;;;;;;;;;;5096626;28;19965;-68
2023/02/14 14:43:11;;;;;;;;;;;;;;;;;;5096387;28;20423;-69
2023/02/14 14:45:36;;;;;;;;;;;;;;;;;;5096344;28;19952;-69
2023/02/14 14:48:02;;;;;;;;;;;;;;;;;;5096613;28;19972;-69
2023/02/14 14:50:28;;;;;;;;;;;;;;;;;;5096201;28;19996;-68
2023/02/14 14:52:54;;;;;;;;;;;;;;;;;;5096206;28;20041;-68
2023/02/14 14:55:20;;;;;;;;;;;;;;;;;;5096185;28;19951;-69
2023/02/14 14:57:46;;;;;;;;;;;;;;;;;;5096360;28;19952;-69
2023/02/14 15:00:12;;;;;;;;;;;;;;;;;;5095943;28;19971;-69
2023/02/14 15:02:38;;;;;;;;;;;;;;;;;;5095996;28;19948;-69
2023/02/14 15:05:04;;;;;;;;;;;;;;;;;;5096239;28;20001;-68
2023/02/14 15:07:30;;;;;;;;;;;;;;;;;;5096214;28;20438;-69
2023/02/14 15:09:56;;;;;;;;;;;;;;;;;;5095993;28;19986;-68
2023/02/14 15:15:08;;;;;;;;;;;;;;;;;;5095818;28;20045;-69
2023/02/14 15:17:34;;;;;;;;;;;;;;;;;;5095722;28;20000;-68
2023/02/14 15:20:00;;;;;;;;;;;;;;;;;;5095591;28;19976;-69
2023/02/14 15:22:27;;;;;;;;;;;;;;;;;;5096133;28;20377;-69
2023/02/14 15:24:53;;;;;;;;;;;;;;;;;;5095862;28;19952;-69
2023/02/14 15:27:19;;;;;;;;;;;;;;;;;;5095767;28;20088;-69
2023/02/14 15:29:45;;;;;;;;;;;;;;;;;;5095451;28;20420;-69
2023/02/14 15:32:11;;;;;;;;;;;;;;;;;;5095444;28;19951;-68
2023/02/14 15:34:37;;;;;;;;;;;;;;;;;;5095962;28;20350;-69
2023/02/14 15:37:05;;;;;;;;;;;;;;;;;;5095632;28;19994;-68
2023/02/14 15:39:30;;;;;;;;;;;;;;;;;;5095256;28;20435;-68
2023/02/14 15:41:56;;;;;;;;;;;;;;;;;;5095801;28;19995;-69
2023/02/14 15:44:22;;;;;;;;;;;;;;;;;;5095201;28;19953;-69
2023/02/14 15:46:48;;;;;;;;;;;;;;;;;;5095350;28;19989;-68
2023/02/14 15:49:14;;;;;;;;;;;;;;;;;;5095368;28;19957;-69
2023/02/14 15:51:40;;;;;;;;;;;;;;;;;;5095296;28;20392;-69
2023/02/14 15:54:06;;;;;;;;;;;;;;;;;;5094971;28;19954;-68
2023/02/14 15:56:32;;;;;;;;;;;;;;;;;;5076813;28;20042;-69
2023/02/14 15:58:58;;;;;;;;;;;;;;;;;;5094888;28;20087;-69
2023/02/14 16:01:25;;;;;;;;;;;;;;;;;;5094783;28;20433;-68
2023/02/14 16:03:51;;;;;;;;;;;;;;;;;;5095413;28;20443;-69
2023/02/14 16:06:18;;;;;;;;;;;;;;;;;;5094770;28;19955;-69
2023/02/14 16:08:45;;;;;;;;;;;;;;;;;;5094707;28;19985;-69
2023/02/14 16:11:13;;;;;;;;;;;;;;;;;;5094250;28;19995;-68
2023/02/14 16:13:40;;;;;;;;;;;;;;;;;;5076374;28;19972;-68
2023/02/14 16:16:06;;;;;;;;;;;;;;;;;;5094602;28;19952;-69
2023/02/14 16:18:32;;;;;;;;;;;;;;;;;;5094826;28;20013;-68
2023/02/14 16:20:58;;;;;;;;;;;;;;;;;;5094481;28;19971;-69
2023/02/14 16:23:24;;;;;;;;;;;;;;;;;;5095011;28;20439;-69
2023/02/14 16:25:50;;;;;;;;;;;;;;;;;;5094685;28;20001;-69
2023/02/14 16:28:16;;;;;;;;;;;;;;;;;;5094401;28;19954;-69
2023/02/14 16:30:42;;;;;;;;;;;;;;;;;;5094576;28;19955;-69
2023/02/14 16:33:08;;;;;;;;;;;;;;;;;;5094569;28;20320;-68
2023/02/14 16:35:34;;;;;;;;;;;;;;;;;;5094251;28;19951;-68
2023/02/14 16:38:00;;;;;;;;;;;;;;;;;;5093887;28;19999;-68
2023/02/14 16:40:26;;;;;;;;;;;;;;;;;;5094349;28;20312;-68
2023/02/14 16:42:52;;;;;;;;;;;;;;;;;;5094130;28;20387;-68
2023/02/14 16:45:18;;;;;;;;;;;;;;;;;;5094650;28;19959;-68
2023/02/14 16:47:43;;;;;;;;;;;;;;;;;;5093994;28;19945;-68
2023/02/14 16:50:09;;;;;;;;;;;;;;;;;;5094292;28;19997;-68
2023/02/14 16:52:35;;;;;;;;;;;;;;;;;;5093884;28;20316;-68